Weather reports worldwide

Advertisment
Monte Settepani, Italy (16111): temperature & dewpoint: 17.07.2019 22:00:00 - 23.07.2019 22:00:00 (CEST)Monte Settepani, Italy (16111): wind speed: 17.07.2019 22:00:00 - 23.07.2019 22:00:00 (CEST)Monte Settepani, Italy (16111): wind direction: 17.07.2019 22:00:00 - 23.07.2019 22:00:00 (CEST)Monte Settepani, Italy (16111): precipitation: 17.07.2019 22:00:00 - 23.07.2019 22:00:00 (CEST)
Date & Time tt [°C] td [°C] ff [km/h] ff [kn] dd rr [mm]
23.07.2019 22:00:00 - - - - - -
23.07.2019 21:00:00 21,7 10,2 8 4 SSE -
23.07.2019 20:00:00 21,7 10,2 4 2 S -
23.07.2019 19:00:00 22,1 16,5 5 3 S -
23.07.2019 18:00:00 23,1 20,0 5 3 SSE -
23.07.2019 17:00:00 22,2 21,1 5 3 SSE -
23.07.2019 16:00:00 - - - - - -
23.07.2019 15:00:00 23,1 20,6 8 4 NNE -
23.07.2019 14:00:00 23,2 21,6 8 4 NNE -
23.07.2019 13:00:00 22,2 19,9 13 7 N -
23.07.2019 12:00:00 22,3 20,5 9 5 NNE -
23.07.2019 11:00:00 21,7 20,5 8 4 SE -
23.07.2019 10:00:00 21,0 20,9 8 4 NNW -
23.07.2019 09:00:00 19,9 19,8 15 8 N -
23.07.2019 08:00:00 19,1 19,0 15 8 N -
23.07.2019 07:00:00 18,5 18,4 18 10 NNW -
23.07.2019 06:00:00 18,3 18,2 18 10 NNW -
23.07.2019 05:00:00 18,6 18,5 18 10 NNW -
23.07.2019 04:00:00 19,2 19,0 9 5 NW -
23.07.2019 03:00:00 19,8 18,2 4 2 NW -
23.07.2019 02:00:00 20,2 15,8 2 1 N -
23.07.2019 01:00:00 19,1 15,1 2 1 SSW -
23.07.2019 00:00:00 19,4 14,8 4 2 SSE -
22.07.2019 23:00:00 20,0 17,3 5 3 S -
22.07.2019 22:00:00 20,5 17,4 5 3 SSE -
22.07.2019 21:00:00 20,4 17,7 5 3 SE -
22.07.2019 20:00:00 20,7 17,8 2 1 S -
22.07.2019 19:00:00 21,4 20,0 4 2 S -
22.07.2019 18:00:00 22,3 19,4 4 2 ESE -
22.07.2019 17:00:00 22,5 20,4 8 4 N -
22.07.2019 16:00:00 22,7 21,3 8 4 NNE -
22.07.2019 15:00:00 22,5 19,8 11 6 NNE -
22.07.2019 14:00:00 21,9 19,8 13 7 NNE -
22.07.2019 13:00:00 21,9 20,7 5 3 ENE -
22.07.2019 12:00:00 21,6 20,9 9 5 N -
22.07.2019 11:00:00 19,9 19,8 15 8 N -
22.07.2019 10:00:00 18,6 18,5 28 15 N -
22.07.2019 09:00:00 17,3 17,2 24 13 N -
22.07.2019 08:00:00 16,8 16,7 21 11 NNW -
22.07.2019 07:00:00 16,8 16,7 26 14 N -
22.07.2019 06:00:00 16,9 16,8 28 15 NNW -
22.07.2019 05:00:00 17,7 17,6 24 13 N -
22.07.2019 04:00:00 18,2 18,1 22 12 NW -
22.07.2019 03:00:00 18,3 18,2 24 13 NNW -
22.07.2019 02:00:00 18,5 18,4 22 12 NW -
22.07.2019 01:00:00 18,1 18,0 22 12 NNW -
22.07.2019 00:00:00 - - 15 8 NNW -
21.07.2019 23:00:00 - - 9 5 N -
21.07.2019 22:00:00 - - 4 2 SW -
21.07.2019 21:00:00 -34,4 -34,4 5 3 SW -
21.07.2019 20:00:00 -34,2 -34,2 9 5 SSW -
21.07.2019 19:00:00 - - 8 4 SSW -
21.07.2019 18:00:00 17,2 17,1 5 3 SSW -
21.07.2019 17:00:00 17,6 17,5 9 5 S -
21.07.2019 16:00:00 17,5 17,4 11 6 SSW -
21.07.2019 15:00:00 17,3 17,2 11 6 SSW -
21.07.2019 14:00:00 16,9 16,8 9 5 S -
21.07.2019 13:00:00 16,8 16,7 5 3 S -
21.07.2019 12:00:00 16,9 16,8 5 3 ESE -
21.07.2019 11:00:00 16,7 16,6 4 2 SSE -
21.07.2019 10:00:00 16,3 16,2 2 1 SE -
21.07.2019 09:00:00 16,1 16,0 0 0 N -
21.07.2019 08:00:00 15,4 15,3 4 2 S -
21.07.2019 07:00:00 16,2 16,1 8 4 N -
21.07.2019 06:00:00 15,7 15,6 4 2 NNE -
21.07.2019 05:00:00 16,3 16,2 5 3 N -
21.07.2019 04:00:00 16,5 16,4 2 1 SSW -
21.07.2019 03:00:00 16,6 16,5 2 1 SSW -
21.07.2019 02:00:00 16,0 15,9 2 1 SW -
21.07.2019 01:00:00 16,0 15,9 8 4 SSW -
21.07.2019 00:00:00 15,6 15,5 4 2 WSW -
20.07.2019 23:00:00 16,1 16,0 4 2 SW -
20.07.2019 22:00:00 16,0 15,9 9 5 SSW -
20.07.2019 21:00:00 16,1 16,0 5 3 SSW -
20.07.2019 20:00:00 16,3 16,2 5 3 SW 0,0
20.07.2019 19:00:00 16,9 16,8 5 3 SW -
20.07.2019 18:00:00 16,2 16,1 13 7 SSW -
20.07.2019 17:00:00 16,0 15,9 15 8 SSW -
20.07.2019 16:00:00 16,4 16,3 16 9 S -
20.07.2019 15:00:00 17,0 16,9 13 7 S -
20.07.2019 14:00:00 16,7 16,6 16 9 S -
20.07.2019 13:00:00 17,7 17,6 13 7 S -
20.07.2019 12:00:00 17,5 17,4 9 5 SSW -
20.07.2019 11:00:00 17,3 17,2 5 3 SSW -
20.07.2019 10:00:00 18,0 17,0 4 2 SSW -
20.07.2019 09:00:00 16,8 15,9 4 2 SSW -
20.07.2019 08:00:00 16,0 15,9 2 1 SSW -
20.07.2019 07:00:00 15,5 15,4 2 1 W -
20.07.2019 06:00:00 15,7 15,6 8 4 WNW -
20.07.2019 05:00:00 15,4 15,3 5 3 W -
20.07.2019 04:00:00 15,9 15,2 8 4 WNW -
20.07.2019 03:00:00 16,1 14,9 8 4 W -
20.07.2019 02:00:00 15,4 15,3 5 3 W -
20.07.2019 01:00:00 15,6 15,5 4 2 SSW -
20.07.2019 00:00:00 14,9 14,8 2 1 SSW -
19.07.2019 23:00:00 14,4 14,3 13 7 SSW -
19.07.2019 22:00:00 15,2 15,1 9 5 SSW -
19.07.2019 21:00:00 15,7 15,6 0 0 N -
19.07.2019 20:00:00 16,3 16,1 0 0 N -
19.07.2019 19:00:00 - - - - - -
19.07.2019 18:00:00 17,9 17,0 0 0 N -
19.07.2019 17:00:00 18,6 17,6 0 0 N -
19.07.2019 16:00:00 17,9 17,8 0 0 N -
19.07.2019 15:00:00 16,8 16,7 4 2 SE -
19.07.2019 14:00:00 18,5 17,6 5 3 NE -
19.07.2019 13:00:00 19,0 17,8 5 3 NE -
19.07.2019 12:00:00 18,2 17,0 4 2 S -
19.07.2019 11:00:00 17,9 16,5 9 5 NNE -
19.07.2019 10:00:00 17,2 16,5 9 5 NNE -
19.07.2019 09:00:00 16,3 16,2 9 5 NNE -
19.07.2019 08:00:00 15,1 15,0 13 7 N -
19.07.2019 07:00:00 14,4 14,3 13 7 N -
19.07.2019 06:00:00 14,4 14,3 11 6 N -
19.07.2019 05:00:00 14,5 14,4 13 7 NNW -
19.07.2019 04:00:00 13,8 13,7 8 4 N -
19.07.2019 03:00:00 14,0 13,9 4 2 N -
19.07.2019 02:00:00 14,2 14,1 9 5 N -
19.07.2019 01:00:00 14,5 14,4 9 5 N -
19.07.2019 00:00:00 15,5 15,4 5 3 NNW -
18.07.2019 23:00:00 15,5 15,4 8 4 NNW -
18.07.2019 22:00:00 15,1 15,0 5 3 NNE -
18.07.2019 21:00:00 15,4 15,3 5 3 NNE -
18.07.2019 20:00:00 16,4 16,3 4 2 N -
18.07.2019 19:00:00 16,9 16,8 2 1 NE -
18.07.2019 18:00:00 16,7 16,6 2 1 WSW -
18.07.2019 17:00:00 15,8 15,7 4 2 S -
18.07.2019 16:00:00 15,6 15,5 4 2 SSE -
18.07.2019 15:00:00 16,7 16,6 4 2 WSW -
18.07.2019 14:00:00 17,4 17,0 2 1 SW -
18.07.2019 13:00:00 18,6 17,2 4 2 W -
18.07.2019 12:00:00 17,2 16,0 4 2 NW -
18.07.2019 11:00:00 16,5 16,0 2 1 NNW -
18.07.2019 10:00:00 16,2 16,1 0 0 N -
18.07.2019 09:00:00 16,2 16,1 4 2 NE -
18.07.2019 08:00:00 14,7 14,6 8 4 NNW -
18.07.2019 07:00:00 14,4 14,3 11 6 NNW -
18.07.2019 06:00:00 14,4 14,3 15 8 NNW -
18.07.2019 05:00:00 14,8 14,7 9 5 NNW -
18.07.2019 04:00:00 15,2 15,1 15 8 NNW -
18.07.2019 03:00:00 15,3 15,2 8 4 NNW -
18.07.2019 02:00:00 15,5 15,4 0 0 N -
18.07.2019 01:00:00 15,2 15,1 0 0 N -
18.07.2019 00:00:00 13,7 13,6 0 0 N -
17.07.2019 23:00:00 13,7 13,6 8 4 SW -
17.07.2019 22:00:00 12,7 12,7 15 8 SW -

tt = temperature
td = dewpoint
ff = wind speed
dd = wind direction
rr = precipitation

Next stations